createdAt,value
2017-05-15T00:02:27.547Z,90.90
2017-05-15T00:04:57.359Z,89.20
2017-05-15T00:07:26.440Z,90.30
2017-05-15T00:09:55.511Z,91.00
2017-05-15T00:12:24.912Z,91.20
2017-05-15T00:14:53.959Z,91.20
2017-05-15T00:17:23.782Z,90.70
2017-05-15T00:19:52.831Z,90.60
2017-05-15T00:22:21.907Z,89.10
2017-05-15T00:24:50.957Z,90.40
2017-05-15T00:27:20.993Z,91.00
2017-05-15T00:29:50.083Z,91.50
2017-05-15T00:32:20.109Z,89.10
2017-05-15T00:34:49.516Z,91.30
2017-05-15T00:37:18.555Z,91.30
2017-05-15T00:39:47.648Z,91.30
2017-05-15T00:42:16.732Z,91.40
2017-05-15T00:44:45.770Z,91.40
2017-05-15T00:47:15.588Z,91.40
2017-05-15T00:49:45.419Z,90.80
2017-05-15T00:52:14.459Z,90.60
2017-05-15T00:54:43.538Z,90.90
2017-05-15T00:57:12.590Z,90.10
2017-05-15T00:59:42.396Z,90.40
2017-05-15T01:02:12.216Z,90.70
2017-05-15T01:04:42.037Z,91.10
2017-05-15T01:07:11.820Z,91.00
2017-05-15T01:09:41.161Z,91.10
2017-05-15T01:12:10.212Z,91.10
2017-05-15T01:14:39.295Z,91.30
2017-05-15T01:17:08.654Z,91.30
2017-05-15T01:19:37.735Z,91.50
2017-05-15T01:22:06.826Z,91.60
2017-05-15T01:24:36.865Z,90.70
2017-05-15T01:27:05.964Z,91.30
2017-05-15T01:29:35.007Z,91.60
2017-05-15T01:32:04.075Z,91.70
2017-05-15T01:34:33.173Z,91.90
2017-05-15T01:37:02.229Z,92.00
2017-05-15T01:39:32.051Z,91.80
2017-05-15T01:42:01.887Z,86.90
2017-05-15T01:44:30.972Z,91.00
2017-05-15T01:47:00.111Z,86.90
2017-05-15T01:49:29.225Z,89.70
2017-05-15T01:51:59.050Z,92.00
2017-05-15T01:54:28.176Z,90.30
2017-05-15T01:56:57.271Z,91.10
2017-05-15T01:59:26.369Z,86.50
2017-05-15T02:01:55.762Z,86.70
2017-05-15T02:04:24.829Z,88.10
2017-05-15T02:06:54.699Z,90.70
2017-05-15T02:09:23.767Z,91.30
2017-05-15T02:11:52.875Z,91.90
2017-05-15T02:14:21.947Z,89.00
2017-05-15T02:16:51.766Z,90.30
2017-05-15T02:19:20.836Z,91.50
2017-05-15T02:21:49.967Z,91.60
2017-05-15T02:24:19.049Z,91.50
2017-05-15T02:26:48.215Z,91.70
2017-05-15T02:29:17.264Z,91.30
2017-05-15T02:31:46.355Z,90.90
2017-05-15T02:34:15.451Z,90.00
2017-05-15T02:36:44.504Z,91.30
2017-05-15T02:39:13.593Z,91.60
2017-05-15T02:41:42.896Z,91.50
2017-05-15T02:44:11.942Z,90.80
2017-05-15T02:46:41.051Z,91.50
2017-05-15T02:49:10.146Z,90.90
2017-05-15T02:51:39.232Z,91.70
2017-05-15T02:54:08.280Z,91.80
2017-05-15T02:56:37.367Z,91.00
2017-05-15T02:59:06.447Z,91.30
2017-05-15T03:01:35.811Z,91.00
2017-05-15T03:04:04.933Z,91.60
2017-05-15T03:06:34.310Z,90.00
2017-05-15T03:09:03.380Z,91.20
2017-05-15T03:11:33.255Z,91.00
2017-05-15T03:14:02.300Z,90.30
2017-05-15T03:16:31.419Z,90.50
2017-05-15T03:19:00.477Z,90.40
2017-05-15T03:21:29.560Z,91.30
2017-05-15T03:23:58.912Z,91.80
2017-05-15T03:26:27.955Z,91.50
2017-05-15T03:28:57.050Z,90.60
2017-05-15T03:31:26.108Z,90.30
2017-05-15T03:33:55.170Z,90.40
2017-05-15T03:36:25.011Z,90.40
2017-05-15T03:38:54.058Z,90.80
2017-05-15T03:41:23.151Z,90.70
2017-05-15T03:43:52.191Z,90.60
2017-05-15T03:46:21.271Z,90.40
2017-05-15T03:48:51.071Z,90.50
2017-05-15T03:51:20.186Z,90.10
2017-05-15T03:53:49.280Z,90.10
2017-05-15T03:56:18.358Z,90.00
2017-05-15T03:58:48.218Z,89.00
2017-05-15T04:01:17.264Z,88.90
2017-05-15T04:03:46.404Z,89.80
2017-05-15T04:06:15.449Z,89.50
2017-05-15T04:08:44.528Z,89.60
2017-05-15T04:11:13.627Z,88.70
2017-05-15T04:13:42.688Z,89.50
2017-05-15T04:16:11.788Z,89.40
2017-05-15T04:18:40.910Z,89.60
2017-05-15T04:21:15.887Z,89.70
2017-05-15T04:23:45.722Z,89.20
2017-05-15T04:26:14.835Z,88.50
2017-05-15T04:28:43.931Z,89.00
2017-05-15T04:31:12.989Z,88.90
2017-05-15T04:33:42.814Z,89.90
2017-05-15T04:36:11.866Z,89.30
2017-05-15T04:38:40.991Z,88.80
2017-05-15T04:41:10.840Z,87.50
2017-05-15T04:43:39.918Z,87.90
2017-05-15T04:46:08.974Z,87.50
2017-05-15T04:48:38.044Z,86.60
2017-05-15T04:51:07.412Z,86.90
2017-05-15T04:53:36.464Z,87.70
2017-05-15T04:56:05.557Z,87.70
2017-05-15T04:58:34.594Z,87.40
2017-05-15T05:01:03.684Z,87.80
2017-05-15T05:03:33.745Z,86.70
2017-05-15T05:06:02.847Z,86.60
2017-05-15T05:08:31.890Z,86.90
2017-05-15T05:11:01.721Z,87.30
2017-05-15T05:13:30.768Z,88.10
2017-05-15T05:15:59.847Z,88.40
2017-05-15T05:18:28.886Z,88.30
2017-05-15T05:21:10.287Z,86.20
2017-05-15T05:23:51.320Z,86.60
2017-05-15T05:26:33.096Z,84.50
2017-05-15T05:29:14.018Z,84.40
2017-05-15T05:31:54.971Z,85.40
2017-05-15T05:37:56.249Z,83.50
2017-05-15T05:40:45.999Z,83.30
2017-05-15T05:43:23.741Z,82.80
2017-05-15T05:45:52.824Z,82.20
2017-05-15T05:48:21.907Z,82.10
2017-05-15T05:50:50.956Z,81.90
2017-05-15T05:53:20.022Z,82.00
2017-05-15T05:56:01.783Z,81.60
2017-05-15T05:58:30.844Z,81.80
2017-05-15T06:01:12.006Z,80.70
2017-05-15T06:03:52.813Z,81.00
2017-05-15T06:06:33.922Z,80.30
2017-05-15T06:09:14.820Z,79.50
2017-05-15T06:11:55.809Z,78.80
2017-05-15T06:14:36.692Z,78.00
2017-05-15T06:17:17.759Z,78.10
2017-05-15T06:19:46.309Z,77.50
2017-05-15T06:22:27.987Z,77.50
2017-05-15T06:25:08.900Z,76.20
2017-05-15T06:27:37.982Z,77.30
2017-05-15T06:30:07.051Z,76.60
2017-05-15T06:32:36.123Z,76.50
2017-05-15T06:35:05.488Z,76.40
2017-05-15T06:37:40.500Z,77.00
2017-05-15T06:40:31.320Z,75.90
2017-05-15T06:43:01.147Z,76.60
2017-05-15T06:45:30.196Z,76.00
2017-05-15T06:47:59.538Z,75.30
2017-05-15T06:50:28.586Z,75.50
2017-05-15T06:52:57.681Z,75.40
2017-05-15T06:55:26.715Z,75.20
2017-05-15T06:57:56.544Z,76.40
2017-05-15T07:00:25.844Z,74.40
2017-05-15T07:02:54.927Z,75.10
2017-05-15T07:05:24.707Z,73.60
2017-05-15T07:07:53.297Z,75.20
2017-05-15T07:10:22.391Z,73.90
2017-05-15T07:12:51.431Z,74.40
2017-05-15T07:15:20.516Z,72.20
2017-05-15T07:17:50.340Z,73.20
2017-05-15T07:20:19.380Z,71.00
2017-05-15T07:22:49.110Z,71.60
2017-05-15T07:25:18.135Z,73.60
2017-05-15T07:27:47.535Z,71.90
2017-05-15T07:30:16.581Z,72.40
2017-05-15T07:32:45.679Z,70.50
2017-05-15T07:35:14.726Z,71.00
2017-05-15T07:37:43.801Z,70.80
2017-05-15T07:40:13.633Z,70.10
2017-05-15T07:42:42.680Z,69.00
2017-05-15T07:45:11.775Z,70.00
2017-05-15T07:47:40.864Z,69.70
2017-05-15T07:50:09.903Z,69.30
2017-05-15T07:52:40.034Z,69.00
2017-05-15T07:55:09.080Z,69.20
2017-05-15T07:57:38.428Z,68.10
2017-05-15T08:00:07.487Z,68.50
2017-05-15T08:02:36.826Z,67.70
2017-05-15T08:05:05.871Z,67.10
2017-05-15T08:07:34.952Z,68.60
2017-05-15T08:10:04.006Z,67.00
2017-05-15T08:12:33.121Z,65.90
2017-05-15T08:15:02.202Z,67.60
2017-05-15T08:17:31.977Z,67.50
2017-05-15T08:20:01.063Z,67.90
2017-05-15T08:22:30.102Z,68.50
2017-05-15T08:24:59.918Z,70.30
2017-05-15T08:27:28.968Z,72.10
2017-05-15T08:29:58.044Z,72.70
2017-05-15T08:32:27.135Z,72.90
2017-05-15T08:34:56.181Z,74.20
2017-05-15T08:37:26.328Z,75.00
2017-05-15T08:39:55.623Z,73.90
2017-05-15T08:42:24.716Z,73.80
2017-05-15T08:44:53.763Z,74.40
2017-05-15T08:47:22.845Z,74.20
2017-05-15T08:49:51.884Z,74.20
2017-05-15T08:52:21.716Z,74.60
2017-05-15T08:54:51.492Z,73.90
2017-05-15T08:57:20.584Z,75.00
2017-05-15T08:59:49.640Z,73.80
2017-05-15T09:02:18.926Z,74.10
2017-05-15T09:04:48.000Z,74.20
2017-05-15T09:07:17.801Z,74.10
2017-05-15T09:09:46.912Z,73.20
2017-05-15T09:12:15.957Z,71.60
2017-05-15T09:14:45.044Z,71.90
2017-05-15T09:17:14.137Z,72.20
2017-05-15T09:19:43.179Z,73.00
2017-05-15T09:22:12.259Z,71.30
2017-05-15T09:24:41.336Z,73.00
2017-05-15T09:27:10.392Z,73.00
2017-05-15T09:29:39.469Z,71.70
2017-05-15T09:32:09.292Z,70.70
2017-05-15T09:34:39.084Z,72.20
2017-05-15T09:37:08.815Z,72.90
2017-05-15T09:39:38.607Z,71.40
2017-05-15T09:42:07.693Z,72.60
2017-05-15T09:44:36.817Z,72.20
2017-05-15T09:47:06.635Z,71.50
2017-05-15T09:49:36.424Z,71.10
2017-05-15T09:52:05.517Z,69.90
2017-05-15T09:54:34.561Z,70.20
2017-05-15T09:57:03.648Z,72.20
2017-05-15T09:59:32.695Z,71.90
2017-05-15T10:02:01.816Z,69.40
2017-05-15T10:04:31.627Z,66.70
2017-05-15T10:07:01.452Z,67.80
2017-05-15T10:09:31.490Z,67.90
2017-05-15T10:12:00.531Z,69.20
2017-05-15T10:14:29.627Z,67.30
2017-05-15T10:16:58.679Z,66.20
2017-05-15T10:19:27.769Z,66.40
2017-05-15T10:21:56.820Z,65.00
2017-05-15T10:24:26.160Z,64.00
2017-05-15T10:26:55.223Z,64.10
2017-05-15T10:29:24.389Z,66.50
2017-05-15T10:31:53.437Z,66.10
2017-05-15T10:34:23.262Z,65.60
2017-05-15T10:36:52.307Z,68.10
2017-05-15T10:39:21.415Z,66.40
2017-05-15T10:41:50.446Z,64.90
2017-05-15T10:44:19.523Z,63.70
2017-05-15T10:46:49.309Z,64.20
2017-05-15T10:49:18.382Z,63.00
2017-05-15T10:51:47.425Z,63.00
2017-05-15T10:54:17.268Z,60.80
2017-05-15T10:56:46.559Z,60.40
2017-05-15T10:59:15.634Z,60.20
2017-05-15T11:01:45.468Z,59.20
2017-05-15T11:04:14.502Z,57.90
2017-05-15T11:06:43.583Z,57.90
2017-05-15T11:09:12.631Z,59.00
2017-05-15T11:11:42.457Z,60.80
2017-05-15T11:14:10.827Z,60.70
2017-05-15T11:16:40.644Z,58.30
2017-05-15T11:19:10.459Z,59.10
2017-05-15T11:21:40.249Z,59.90
2017-05-15T11:24:09.351Z,57.70
2017-05-15T11:26:38.400Z,57.30
2017-05-15T11:29:07.466Z,56.30
2017-05-15T11:31:36.551Z,56.40
2017-05-15T11:34:06.330Z,55.00
2017-05-15T11:36:35.442Z,55.50
2017-05-15T11:39:04.474Z,55.40
2017-05-15T11:41:33.568Z,57.20
2017-05-15T11:44:02.602Z,54.70
2017-05-15T11:46:31.680Z,55.70
2017-05-15T11:49:00.765Z,55.20
2017-05-15T11:51:29.803Z,54.00
2017-05-15T11:53:58.885Z,56.10
2017-05-15T11:56:27.920Z,54.50
2017-05-15T11:58:56.983Z,55.00
2017-05-15T12:01:26.047Z,54.00
2017-05-15T12:03:55.138Z,54.00
2017-05-15T12:06:24.175Z,53.50
2017-05-15T12:08:53.258Z,53.90
2017-05-15T12:11:22.291Z,53.70
2017-05-15T12:13:52.102Z,51.20
2017-05-15T12:16:21.881Z,51.70
2017-05-15T12:18:50.947Z,51.30
2017-05-15T12:21:19.970Z,52.60
2017-05-15T12:23:49.043Z,51.90
2017-05-15T12:26:18.074Z,52.00
2017-05-15T12:28:47.139Z,52.00
2017-05-15T12:31:16.169Z,51.90
2017-05-15T12:33:45.331Z,50.00
2017-05-15T12:36:14.365Z,48.40
2017-05-15T12:38:43.705Z,48.20
2017-05-15T12:41:12.997Z,49.90
2017-05-15T12:43:42.075Z,48.50
2017-05-15T12:46:12.789Z,48.20
2017-05-15T12:48:41.852Z,47.80
2017-05-15T12:51:10.886Z,47.50
2017-05-15T12:53:40.018Z,48.60
2017-05-15T12:56:09.065Z,47.70
2017-05-15T12:58:38.455Z,45.80
2017-05-15T13:01:07.494Z,44.80
2017-05-15T13:03:37.307Z,44.80
2017-05-15T13:06:07.089Z,45.50
2017-05-15T13:08:36.184Z,45.10
2017-05-15T13:11:05.223Z,44.20
2017-05-15T13:13:34.298Z,43.90
2017-05-15T13:16:03.373Z,40.30
2017-05-15T13:18:32.403Z,40.60
2017-05-15T13:21:02.232Z,40.70
2017-05-15T13:23:31.269Z,40.50
2017-05-15T13:26:00.371Z,38.20
2017-05-15T13:28:29.407Z,38.50
2017-05-15T13:30:58.478Z,39.40
2017-05-15T13:33:27.573Z,38.70
2017-05-15T13:35:56.618Z,39.50
2017-05-15T13:38:25.707Z,37.10
2017-05-15T13:40:54.797Z,39.30
2017-05-15T13:43:24.084Z,42.30
2017-05-15T13:45:53.212Z,42.60
2017-05-15T13:48:22.267Z,40.20
2017-05-15T13:50:52.093Z,41.60
2017-05-15T13:53:21.113Z,43.80
2017-05-15T13:55:50.216Z,42.40
2017-05-15T13:58:19.289Z,40.80
2017-05-15T14:00:48.326Z,37.60
2017-05-15T14:03:17.398Z,37.80
2017-05-15T14:05:46.763Z,35.90
2017-05-15T14:08:16.576Z,37.30
2017-05-15T14:10:46.359Z,33.90
2017-05-15T14:13:15.427Z,33.90
2017-05-15T14:15:44.468Z,35.20
2017-05-15T14:18:14.276Z,35.30
2017-05-15T14:20:44.068Z,34.80
2017-05-15T14:23:13.154Z,34.40
2017-05-15T14:25:43.052Z,34.80
2017-05-15T14:28:12.105Z,36.30
2017-05-15T14:30:41.956Z,36.80
2017-05-15T14:33:10.999Z,36.20
2017-05-15T14:35:40.085Z,36.30
2017-05-15T14:38:09.131Z,37.50
2017-05-15T14:40:38.189Z,36.30
2017-05-15T14:43:08.004Z,35.20
2017-05-15T14:45:37.790Z,35.00
2017-05-15T14:48:06.868Z,32.30
2017-05-15T14:50:35.906Z,32.50
2017-05-15T14:53:05.699Z,32.90
2017-05-15T14:55:34.788Z,34.30
2017-05-15T14:58:03.815Z,33.90
2017-05-15T15:00:33.645Z,35.30
2017-05-15T15:03:02.690Z,35.00
2017-05-15T15:05:31.785Z,35.50
2017-05-15T15:08:00.812Z,35.60
2017-05-15T15:10:30.619Z,33.90
2017-05-15T15:13:00.387Z,34.90
2017-05-15T15:15:29.477Z,34.30
2017-05-15T15:17:58.513Z,35.30
2017-05-15T15:20:27.597Z,35.40
2017-05-15T15:22:57.158Z,36.70
2017-05-15T15:25:26.245Z,37.20
2017-05-15T15:27:55.285Z,37.30
2017-05-15T15:30:24.355Z,36.30
2017-05-15T15:32:53.436Z,35.60
2017-05-15T15:35:22.458Z,35.70
2017-05-15T15:37:51.548Z,36.00
2017-05-15T15:40:20.597Z,34.80
2017-05-15T15:42:50.190Z,34.30
2017-05-15T15:45:19.219Z,33.60
2017-05-15T15:47:48.313Z,34.30
2017-05-15T15:50:17.364Z,33.20
2017-05-15T15:52:46.455Z,29.70
2017-05-15T15:55:15.799Z,29.00
2017-05-15T15:57:44.891Z,30.60
2017-05-15T16:00:13.916Z,31.70
2017-05-15T16:02:42.994Z,32.90
2017-05-15T16:05:12.031Z,32.40
2017-05-15T16:07:41.108Z,30.00
2017-05-15T16:10:10.497Z,31.10
2017-05-15T16:12:40.340Z,30.30
2017-05-15T16:15:09.425Z,29.80
2017-05-15T16:17:38.455Z,31.20
2017-05-15T16:20:07.543Z,32.10
2017-05-15T16:22:36.582Z,32.90
2017-05-15T16:25:05.647Z,33.40
2017-05-15T16:27:34.720Z,32.20
2017-05-15T16:30:03.755Z,34.00
2017-05-15T16:32:33.571Z,34.40
2017-05-15T16:35:02.609Z,33.80
2017-05-15T16:37:31.662Z,33.30
2017-05-15T16:40:00.747Z,31.40
2017-05-15T16:42:30.511Z,29.90
2017-05-15T16:45:00.382Z,29.80
2017-05-15T16:47:29.411Z,30.50
2017-05-15T16:49:58.497Z,32.70
2017-05-15T16:52:27.542Z,31.60
2017-05-15T16:54:57.796Z,28.10
2017-05-15T16:57:26.827Z,27.80
2017-05-15T16:59:55.903Z,28.30
2017-05-15T17:02:24.940Z,25.90
2017-05-15T17:04:54.005Z,24.90
2017-05-15T17:07:23.067Z,24.70
2017-05-15T17:09:52.099Z,25.60
2017-05-15T17:12:21.459Z,28.30
2017-05-15T17:14:50.493Z,30.40
2017-05-15T17:17:19.784Z,32.00
2017-05-15T17:19:48.875Z,34.80
2017-05-15T17:22:17.912Z,34.20
2017-05-15T17:24:46.984Z,34.90
2017-05-15T17:27:16.010Z,35.00
2017-05-15T17:29:45.075Z,38.00
2017-05-15T17:32:14.167Z,37.20
2017-05-15T17:34:43.199Z,37.70
2017-05-15T17:37:13.035Z,38.80
2017-05-15T17:39:42.809Z,40.00
2017-05-15T17:42:11.883Z,41.10
2017-05-15T17:44:40.911Z,41.70
2017-05-15T17:47:10.328Z,41.80
2017-05-15T17:49:40.116Z,42.60
2017-05-15T17:52:09.195Z,42.50
2017-05-15T17:54:38.223Z,42.60
2017-05-15T17:57:08.044Z,43.00
2017-05-15T17:59:37.819Z,43.10
2017-05-15T18:02:06.911Z,42.40
2017-05-15T18:04:35.942Z,42.20
2017-05-15T18:07:05.756Z,42.90
2017-05-15T18:09:35.542Z,42.50
2017-05-15T18:12:04.620Z,41.60
2017-05-15T18:14:33.655Z,41.70
2017-05-15T18:17:02.948Z,41.40
2017-05-15T18:19:31.997Z,43.00
2017-05-15T18:22:01.076Z,42.60
2017-05-15T18:24:30.104Z,42.60
2017-05-15T18:26:59.171Z,43.10
2017-05-15T18:29:28.256Z,43.80
2017-05-15T18:31:57.296Z,44.20
2017-05-15T18:34:26.371Z,44.70
2017-05-15T18:36:55.440Z,44.90
2017-05-15T18:39:24.535Z,45.00
2017-05-15T18:41:53.585Z,45.80
2017-05-15T18:44:22.673Z,45.60
2017-05-15T18:46:51.706Z,46.20
2017-05-15T18:49:26.726Z,46.50
2017-05-15T18:51:55.762Z,46.80
2017-05-15T18:54:24.868Z,47.00
2017-05-15T18:56:53.919Z,47.60
2017-05-15T18:59:22.987Z,47.80
2017-05-15T19:01:52.037Z,47.80
2017-05-15T19:04:21.104Z,47.90
2017-05-15T19:06:50.172Z,48.60
2017-05-15T19:09:19.222Z,48.30
2017-05-15T19:11:48.619Z,49.40
2017-05-15T19:14:17.809Z,48.40
2017-05-15T19:16:47.625Z,49.10
2017-05-15T19:19:17.399Z,49.40
2017-05-15T19:21:47.257Z,49.80
2017-05-15T19:24:17.047Z,50.60
2017-05-15T19:26:46.132Z,51.10
2017-05-15T19:29:15.161Z,51.00
2017-05-15T19:31:44.219Z,50.90
2017-05-15T19:34:13.293Z,50.50
2017-05-15T19:36:42.337Z,50.20
2017-05-15T19:39:12.130Z,50.40
2017-05-15T19:41:41.177Z,50.40
2017-05-15T19:44:10.254Z,50.80
2017-05-15T19:46:39.304Z,51.00
2017-05-15T19:49:08.370Z,50.90
2017-05-15T19:51:37.398Z,51.30
2017-05-15T19:54:06.462Z,51.30
2017-05-15T19:56:35.539Z,51.80
2017-05-15T19:59:04.571Z,51.90
2017-05-15T20:01:33.660Z,52.30
2017-05-15T20:04:02.702Z,52.50
2017-05-15T20:06:32.531Z,52.80
2017-05-15T20:09:01.824Z,52.90
2017-05-15T20:11:30.934Z,53.40
2017-05-15T20:13:59.997Z,53.30
2017-05-15T20:16:29.087Z,52.90
2017-05-15T20:18:58.131Z,54.20
2017-05-15T20:21:27.209Z,54.20
2017-05-15T20:23:56.250Z,54.70
2017-05-15T20:26:25.464Z,54.70
2017-05-15T20:28:54.557Z,55.10
2017-05-15T20:31:23.606Z,54.80
2017-05-15T20:33:52.679Z,55.50
2017-05-15T20:36:21.726Z,55.80
2017-05-15T20:38:50.783Z,55.90
2017-05-15T20:41:19.857Z,56.60
2017-05-15T20:43:49.632Z,56.70
2017-05-15T20:46:18.951Z,57.30
2017-05-15T20:48:47.991Z,57.80
2017-05-15T20:51:17.091Z,58.20
2017-05-15T20:53:46.119Z,53.30
2017-05-15T20:56:15.200Z,55.00
2017-05-15T20:58:44.560Z,58.00
2017-05-15T21:01:13.965Z,57.50
2017-05-15T21:03:43.803Z,58.50
2017-05-15T21:06:12.844Z,57.10
2017-05-15T21:08:41.931Z,59.00
2017-05-15T21:11:11.387Z,59.10
2017-05-15T21:13:40.487Z,59.50
2017-05-15T21:16:09.754Z,59.90
2017-05-15T21:18:38.837Z,61.00
2017-05-15T21:21:07.921Z,59.00
2017-05-15T21:23:36.960Z,60.90
2017-05-15T21:26:06.063Z,62.00
2017-05-15T21:28:35.104Z,61.50
2017-05-15T21:31:04.257Z,61.10
2017-05-15T21:33:33.307Z,61.80
2017-05-15T21:36:02.641Z,62.00
2017-05-15T21:38:31.672Z,62.40
2017-05-15T21:41:00.775Z,62.90
2017-05-15T21:43:29.809Z,62.20
2017-05-15T21:45:59.627Z,61.80
2017-05-15T21:48:29.393Z,62.50
2017-05-15T21:50:58.477Z,62.60
2017-05-15T21:53:27.502Z,63.90
2017-05-15T21:55:56.567Z,61.70
2017-05-15T21:58:25.604Z,63.90
2017-05-15T22:00:54.671Z,64.30
2017-05-15T22:03:23.757Z,64.20
2017-05-15T22:05:52.867Z,63.70
2017-05-15T22:08:21.905Z,64.10
2017-05-15T22:10:51.860Z,65.10
2017-05-15T22:13:21.685Z,64.60
2017-05-15T22:15:50.738Z,64.70
2017-05-15T22:18:19.899Z,63.10
2017-05-15T22:20:48.933Z,64.80
2017-05-15T22:23:18.038Z,65.90
2017-05-15T22:25:47.074Z,65.60
2017-05-15T22:28:16.171Z,66.00
2017-05-15T22:30:45.211Z,66.20
2017-05-15T22:33:14.288Z,66.80
2017-05-15T22:35:43.364Z,66.80
2017-05-15T22:38:12.404Z,67.70
2017-05-15T22:40:41.503Z,68.30
2017-05-15T22:43:10.582Z,68.20
2017-05-15T22:45:40.412Z,68.70
2017-05-15T22:48:09.435Z,68.80
2017-05-15T22:50:38.798Z,68.20
2017-05-15T22:53:07.872Z,68.20
2017-05-15T22:55:37.652Z,67.80
2017-05-15T22:58:06.740Z,68.60
2017-05-15T23:00:35.773Z,69.20
2017-05-15T23:03:04.904Z,70.10
2017-05-15T23:05:33.951Z,69.70
2017-05-15T23:08:03.015Z,67.80
2017-05-15T23:10:32.052Z,69.30
2017-05-15T23:13:01.107Z,68.80
2017-05-15T23:15:30.188Z,68.60
2017-05-15T23:17:59.223Z,69.50
2017-05-15T23:20:28.292Z,70.40
2017-05-15T23:22:57.658Z,69.30
2017-05-15T23:25:26.709Z,69.40
2017-05-15T23:27:55.780Z,69.90
2017-05-15T23:30:24.819Z,69.80
2017-05-15T23:32:54.147Z,69.50
2017-05-15T23:35:23.187Z,68.90
2017-05-15T23:37:52.243Z,68.40
2017-05-15T23:40:21.323Z,70.10
2017-05-15T23:42:51.110Z,71.40
2017-05-15T23:45:20.184Z,71.20
2017-05-15T23:47:49.229Z,71.40
2017-05-15T23:50:19.044Z,71.10
2017-05-15T23:52:49.146Z,71.90
2017-05-15T23:55:18.223Z,71.90
2017-05-15T23:57:47.253Z,70.80
